Time;durP1;ratioP1;P1;durP2;ratioP2;P2;SDS_P1;SDS_P2;PMS_P1;PMS_P2;Temp;Humidity;BMP_temperature;BMP_pressure;BME280_temperature;BME280_humidity;BME280_pressure;Samples;Min_cycle;Max_cycle;Signal;HPM_P1;HPM_P2
2023/08/11 00:03:05;;;;;;;10.18;5.60;;;;;;;16.98;100.00;101977.66;5275221;28;20098;-71
2023/08/11 00:05:38;;;;;;;7.80;4.93;;;;;;;16.96;100.00;101959.88;5287908;28;20069;-71
2023/08/11 00:08:09;;;;;;;11.30;5.70;;;;;;;16.90;100.00;101957.91;5279054;28;20035;-71
2023/08/11 00:10:40;;;;;;;10.75;5.97;;;;;;;16.85;100.00;101958.44;5275431;28;20028;-71
2023/08/11 00:13:13;;;;;;;11.32;4.90;;;;;;;16.81;100.00;101957.94;5289889;28;20110;-71
2023/08/11 00:15:43;;;;;;;6.40;4.50;;;;;;;16.78;100.00;101957.50;5283188;28;20550;-71
2023/08/11 00:18:14;;;;;;;6.35;4.32;;;;;;;16.73;100.00;101959.91;5278498;28;20183;-71
2023/08/11 00:20:45;;;;;;;7.82;5.57;;;;;;;16.69;100.00;101959.38;5288004;28;20019;-71
2023/08/11 00:23:16;;;;;;;9.38;5.38;;;;;;;16.67;100.00;101956.00;5288159;28;20016;-71
2023/08/11 00:25:46;;;;;;;11.82;5.30;;;;;;;16.61;100.00;101964.84;5287868;28;20035;-71
2023/08/11 00:28:17;;;;;;;8.48;5.00;;;;;;;16.55;100.00;101950.13;5287950;28;20027;-71
2023/08/11 00:30:48;;;;;;;10.02;5.18;;;;;;;16.51;100.00;101951.50;5287505;28;20019;-71
2023/08/11 00:33:19;;;;;;;8.13;5.22;;;;;;;16.46;100.00;101951.22;5274295;28;20028;-71
2023/08/11 00:35:49;;;;;;;6.07;4.50;;;;;;;16.45;100.00;101945.97;5287724;28;20031;-71
2023/08/11 00:38:22;;;;;;;6.18;4.72;;;;;;;16.43;100.00;101939.91;5287844;28;20039;-71
2023/08/11 00:40:53;;;;;;;5.72;4.47;;;;;;;16.44;100.00;101941.59;5287610;28;20263;-71
2023/08/11 00:43:24;;;;;;;5.55;3.80;;;;;;;16.41;100.00;101933.81;5273782;28;20047;-71
2023/08/11 00:45:56;;;;;;;7.68;3.83;;;;;;;16.40;100.00;101937.53;5287385;28;20334;-71
2023/08/11 00:48:26;;;;;;;8.02;4.30;;;;;;;16.37;100.00;101936.06;5266984;28;20024;-71
2023/08/11 00:50:57;;;;;;;5.78;4.30;;;;;;;16.36;100.00;101933.50;5280918;28;20027;-71
2023/08/11 00:53:29;;;;;;;9.77;5.10;;;;;;;16.37;100.00;101935.22;5287549;28;20032;-71
2023/08/11 00:56:02;;;;;;;8.80;5.05;;;;;;;16.34;100.00;101935.56;5287054;28;20102;-71
2023/08/11 00:58:34;;;;;;;8.57;5.22;;;;;;;16.30;100.00;101921.50;5287512;28;20032;-71
2023/08/11 01:01:04;;;;;;;6.38;4.60;;;;;;;16.29;100.00;101930.66;5286558;28;20526;-71
2023/08/11 01:03:35;;;;;;;10.80;5.18;;;;;;;16.23;100.00;101932.22;5287816;28;20239;-71
2023/08/11 01:06:16;;;;;;;6.57;4.75;;;;;;;16.23;100.00;101929.53;5286487;28;20028;-71
2023/08/11 01:08:52;;;;;;;5.57;4.13;;;;;;;16.20;100.00;101929.03;5269116;28;20035;-71
2023/08/11 01:11:33;;;;;;;5.63;4.28;;;;;;;16.17;100.00;101929.38;5277747;28;20032;-71
2023/08/11 01:14:26;;;;;;;13.38;5.00;;;;;;;16.12;100.00;101915.53;5284433;28;20433;-71
2023/08/11 01:16:59;;;;;;;11.45;6.63;;;;;;;16.07;100.00;101910.66;5286589;28;20034;-71
2023/08/11 01:19:34;;;;;;;11.93;5.88;;;;;;;16.04;100.00;101911.00;5287282;28;20027;-71
2023/08/11 01:22:14;;;;;;;11.13;4.97;;;;;;;16.05;100.00;101910.81;5287084;28;20024;-71
2023/08/11 01:24:46;;;;;;;7.22;4.57;;;;;;;16.04;100.00;101913.69;5286784;28;20035;-71
2023/08/11 01:27:18;;;;;;;7.78;4.72;;;;;;;16.05;100.00;101918.09;5286819;28;20028;-71
2023/08/11 01:29:51;;;;;;;8.75;5.05;;;;;;;16.05;100.00;101912.69;5269151;28;20056;-71
2023/08/11 01:32:22;;;;;;;7.68;5.03;;;;;;;16.02;100.00;101913.06;5287491;28;20016;-71
2023/08/11 01:34:52;;;;;;;7.30;4.97;;;;;;;15.99;100.00;101907.97;5285076;28;20030;-71
2023/08/11 01:37:23;;;;;;;7.20;4.90;;;;;;;15.93;100.00;101903.28;5265702;28;20103;-71
2023/08/11 01:39:53;;;;;;;9.52;5.13;;;;;;;15.89;100.00;101910.06;5283098;28;20020;-71
2023/08/11 01:42:24;;;;;;;9.40;5.22;;;;;;;15.85;100.00;101914.13;5287057;28;20541;-71
2023/08/11 01:44:55;;;;;;;7.57;4.85;;;;;;;15.79;100.00;101910.25;5286683;28;20531;-71
2023/08/11 01:47:26;;;;;;;10.60;5.80;;;;;;;15.75;100.00;101925.97;5286247;28;20031;-71
2023/08/11 01:49:57;;;;;;;14.65;5.82;;;;;;;15.71;100.00;101919.25;5285983;28;20441;-71
2023/08/11 01:52:30;;;;;;;13.70;6.10;;;;;;;15.68;100.00;101913.34;5268392;28;20023;-71
2023/08/11 01:55:01;;;;;;;8.50;5.07;;;;;;;15.62;100.00;101922.13;5273532;28;20610;-71
2023/08/11 01:57:34;;;;;;;9.32;4.70;;;;;;;15.58;100.00;101921.63;5284420;28;20019;-71
2023/08/11 02:00:09;;;;;;;5.82;4.43;;;;;;;15.55;100.00;101916.53;5274537;28;20436;-71
2023/08/11 02:02:40;;;;;;;10.07;5.38;;;;;;;15.53;100.00;101922.13;5286211;28;20039;-71
2023/08/11 02:05:12;;;;;;;7.20;5.10;;;;;;;15.52;100.00;101925.03;5268171;28;20027;-71
2023/08/11 02:07:44;;;;;;;8.07;5.40;;;;;;;15.48;100.00;101924.50;5285828;28;20024;-71
2023/08/11 02:10:16;;;;;;;9.60;5.35;;;;;;;15.45;100.00;101924.84;5286533;28;20421;-71
2023/08/11 02:12:47;;;;;;;13.93;5.88;;;;;;;15.45;100.00;101924.84;5285860;28;20492;-71
2023/08/11 02:15:18;;;;;;;9.35;5.95;;;;;;;15.42;100.00;101929.78;5285973;27;20077;-71
2023/08/11 02:17:49;;;;;;;8.23;6.00;;;;;;;15.38;100.00;101925.72;5285922;28;20054;-71
2023/08/11 02:20:21;;;;;;;8.90;6.53;;;;;;;15.35;100.00;101929.59;5283518;28;20059;-71
2023/08/11 02:22:52;;;;;;;10.18;6.82;;;;;;;15.33;100.00;101930.81;5275461;28;20381;-71
2023/08/11 02:25:25;;;;;;;15.80;5.82;;;;;;;15.28;100.00;101923.19;5285387;28;20054;-71
2023/08/11 02:27:56;;;;;;;5.35;4.18;;;;;;;15.26;100.00;101919.81;5285833;28;20345;-71
2023/08/11 02:30:29;;;;;;;7.60;5.28;;;;;;;15.25;100.00;101921.66;5285833;28;20392;-71
2023/08/11 02:33:00;;;;;;;7.35;3.65;;;;;;;15.21;100.00;101919.47;5273236;28;20016;-71
2023/08/11 02:35:30;;;;;;;7.10;4.75;;;;;;;15.17;100.00;101915.44;5285429;28;20172;-71
2023/08/11 02:38:01;;;;;;;6.95;3.95;;;;;;;15.19;100.00;101916.09;5285199;28;20508;-71
2023/08/11 02:40:31;;;;;;;8.73;4.22;;;;;;;15.18;100.00;101917.13;5286021;28;20043;-71
2023/08/11 02:43:02;;;;;;;6.53;4.28;;;;;;;15.12;100.00;101924.06;5285854;28;20023;-72
2023/08/11 02:45:33;;;;;;;11.55;5.13;;;;;;;15.11;100.00;101924.22;5276683;28;20080;-71
2023/08/11 02:48:04;;;;;;;6.10;4.78;;;;;;;15.09;100.00;101927.09;5281852;28;20372;-71
2023/08/11 02:50:34;;;;;;;9.75;6.25;;;;;;;15.08;100.00;101928.13;5285594;28;20072;-71
2023/08/11 02:53:05;;;;;;;10.50;6.53;;;;;;;15.07;100.00;101926.44;5285638;28;20369;-71
2023/08/11 02:55:35;;;;;;;10.15;7.00;;;;;;;15.03;100.00;101927.78;5285512;28;20023;-71
2023/08/11 02:58:06;;;;;;;14.10;6.75;;;;;;;14.98;100.00;101922.88;5285483;28;20404;-71
2023/08/11 03:00:36;;;;;;;9.73;5.68;;;;;;;14.96;100.00;101927.63;5285403;28;20031;-71
2023/08/11 03:03:07;;;;;;;9.75;5.53;;;;;;;14.95;100.00;101930.47;5285584;28;20203;-71
2023/08/11 03:05:37;;;;;;;9.00;5.22;;;;;;;14.95;100.00;101925.91;5285309;28;20361;-71
2023/08/11 03:08:08;;;;;;;6.60;4.82;;;;;;;14.90;100.00;101920.16;5276347;28;20027;-71
2023/08/11 03:10:38;;;;;;;21.65;3.50;;;;;;;14.86;100.00;101923.38;5280488;28;20032;-71
2023/08/11 03:13:09;;;;;;;2.78;2.40;;;;;;;14.81;100.00;101921.19;5285290;28;20024;-71
2023/08/11 03:15:40;;;;;;;4.20;3.28;;;;;;;14.76;100.00;101912.75;5284665;28;20106;-71
2023/08/11 03:18:11;;;;;;;5.85;3.83;;;;;;;14.76;100.00;101902.78;5285425;28;20114;-71
2023/08/11 03:20:41;;;;;;;4.88;3.33;;;;;;;14.74;100.00;101909.34;5280081;28;20028;-71
2023/08/11 03:23:12;;;;;;;3.35;2.60;;;;;;;14.70;100.00;101906.13;5279001;28;20138;-71
2023/08/11 03:25:42;;;;;;;3.17;2.60;;;;;;;14.67;100.00;101903.78;5288734;28;20122;-71
2023/08/11 03:28:13;;;;;;;5.22;2.80;;;;;;;14.66;100.00;101912.91;5289642;28;20026;-71
2023/08/11 03:30:43;;;;;;;2.92;2.60;;;;;;;14.64;100.00;101920.31;5289567;28;20020;-71
2023/08/11 03:33:14;;;;;;;5.28;3.55;;;;;;;14.64;100.00;101914.06;5289617;28;20024;-71
2023/08/11 03:35:46;;;;;;;5.40;3.45;;;;;;;14.63;100.00;101920.50;5261798;28;20043;-71
2023/08/11 03:38:16;;;;;;;4.38;3.40;;;;;;;14.60;100.00;101923.50;5284671;28;20089;-71
2023/08/11 03:40:47;;;;;;;8.57;4.35;;;;;;;14.57;100.00;101924.72;5278804;28;20024;-71
2023/08/11 03:43:18;;;;;;;10.77;5.25;;;;;;;14.54;100.00;101925.03;5286443;28;20015;-71
2023/08/11 03:45:50;;;;;;;6.93;5.30;;;;;;;14.53;100.00;101923.34;5288937;28;20370;-71
2023/08/11 03:48:21;;;;;;;11.25;6.07;;;;;;;14.53;100.00;101927.91;5289105;28;20031;-71
2023/08/11 03:50:51;;;;;;;9.43;5.93;;;;;;;14.52;100.00;101928.91;5288561;28;20080;-71
2023/08/11 03:53:22;;;;;;;7.55;5.88;;;;;;;14.49;100.00;101924.69;5289200;28;20023;-71
2023/08/11 03:55:53;;;;;;;5.97;3.08;;;;;;;14.46;100.00;101923.13;5288505;28;20038;-71
2023/08/11 03:58:24;;;;;;;5.20;2.60;;;;;;;14.44;100.00;101918.91;5289393;28;20045;-71
2023/08/11 04:00:54;;;;;;;3.17;2.30;;;;;;;14.40;100.00;101910.28;5270545;28;20050;-71
2023/08/11 04:03:27;;;;;;;3.28;2.58;;;;;;;14.38;100.00;101909.63;5288891;28;20016;-70
2023/08/11 04:05:58;;;;;;;3.38;2.70;;;;;;;14.35;100.00;101912.63;5270641;28;20035;-70
2023/08/11 04:08:29;;;;;;;2.33;1.90;;;;;;;14.35;100.00;101911.78;5276769;28;20024;-71
2023/08/11 04:10:59;;;;;;;2.28;1.85;;;;;;;14.33;100.00;101906.56;5286996;28;20024;-70
2023/08/11 04:13:30;;;;;;;3.65;2.78;;;;;;;14.34;100.00;101908.25;5288830;28;20019;-71
2023/08/11 04:16:00;;;;;;;4.32;3.08;;;;;;;14.33;100.00;101903.88;5287612;28;20085;-71
2023/08/11 04:18:31;;;;;;;2.88;2.30;;;;;;;14.32;100.00;101907.59;5288550;28;20023;-71
2023/08/11 04:21:01;;;;;;;2.20;2.00;;;;;;;14.31;100.00;101907.72;5288790;28;20473;-71
2023/08/11 04:23:32;;;;;;;4.15;3.05;;;;;;;14.28;100.00;101900.81;5274798;28;20024;-71
2023/08/11 04:26:04;;;;;;;6.75;2.70;;;;;;;14.29;100.00;101899.81;5278800;28;20145;-71
2023/08/11 04:28:36;;;;;;;2.25;1.90;;;;;;;14.30;100.00;101900.66;5271025;28;20028;-71
2023/08/11 04:31:07;;;;;;;1.90;1.40;;;;;;;14.28;100.00;101905.38;5284689;28;20487;-71
2023/08/11 04:33:37;;;;;;;3.13;2.50;;;;;;;14.24;100.00;101897.59;5287578;28;20028;-71
2023/08/11 04:36:08;;;;;;;5.53;2.80;;;;;;;14.27;100.00;101892.91;5287508;28;20369;-71
2023/08/11 04:38:38;;;;;;;2.65;2.20;;;;;;;14.27;100.00;101895.59;5287588;28;20389;-71
2023/08/11 04:41:09;;;;;;;4.25;3.20;;;;;;;14.28;100.00;101881.91;5270177;28;20030;-71
2023/08/11 04:43:39;;;;;;;6.65;3.33;;;;;;;14.30;100.00;101884.44;5288063;28;20427;-72
2023/08/11 04:46:09;;;;;;;9.43;3.70;;;;;;;14.34;100.00;101883.13;5274187;28;20034;-71
2023/08/11 04:48:40;;;;;;;5.78;3.92;;;;;;;14.35;100.00;101884.78;5279707;28;20024;-71
2023/08/11 04:51:11;;;;;;;7.60;4.32;;;;;;;14.37;100.00;101885.50;5283307;28;20062;-71
2023/08/11 04:53:41;;;;;;;8.60;5.13;;;;;;;14.40;100.00;101877.88;5277652;28;20027;-71
2023/08/11 04:56:12;;;;;;;6.78;5.20;;;;;;;14.44;100.00;101876.53;5252598;28;20016;-71
2023/08/11 04:58:42;;;;;;;6.25;4.20;;;;;;;14.49;100.00;101881.47;5287888;28;20019;-71
2023/08/11 05:01:14;;;;;;;5.63;4.25;;;;;;;14.52;100.00;101889.25;5287701;28;20024;-71
2023/08/11 05:03:45;;;;;;;7.47;4.35;;;;;;;14.58;100.00;101891.28;5274443;28;20051;-71
2023/08/11 05:06:17;;;;;;;5.55;4.13;;;;;;;14.66;100.00;101874.22;5280052;28;20107;-71
2023/08/11 05:08:47;;;;;;;7.63;5.22;;;;;;;14.69;100.00;101880.16;5267310;28;20024;-71
2023/08/11 05:11:18;;;;;;;4.15;3.33;;;;;;;14.75;100.00;101879.47;5287438;28;20029;-71
2023/08/11 05:13:48;;;;;;;5.10;3.13;;;;;;;14.77;100.00;101879.31;5273742;28;20024;-71
2023/08/11 05:16:19;;;;;;;7.20;4.90;;;;;;;14.83;100.00;101884.03;5286796;28;20031;-71
2023/08/11 05:18:50;;;;;;;9.98;5.65;;;;;;;14.88;100.00;101878.97;5287457;28;20102;-71
2023/08/11 05:21:20;;;;;;;7.80;5.45;;;;;;;14.96;100.00;101878.97;5287434;28;20077;-71
2023/08/11 05:23:51;;;;;;;7.13;5.15;;;;;;;15.01;100.00;101881.19;5273384;28;20465;-71
2023/08/11 05:26:21;;;;;;;13.55;6.00;;;;;;;15.07;100.00;101875.09;5287031;28;20275;-71
2023/08/11 05:28:52;;;;;;;14.63;7.13;;;;;;;15.13;100.00;101879.78;5286724;28;20030;-71
2023/08/11 05:31:22;;;;;;;14.00;6.93;;;;;;;15.23;100.00;101880.47;5287404;28;20037;-71
2023/08/11 05:33:53;;;;;;;9.30;6.15;;;;;;;15.35;100.00;101880.94;5286974;28;20027;-71
2023/08/11 05:36:24;;;;;;;10.32;6.97;;;;;;;15.47;100.00;101879.56;5286726;28;20028;-71
2023/08/11 05:38:54;;;;;;;13.48;7.05;;;;;;;15.60;100.00;101883.56;5286998;28;20152;-71
2023/08/11 05:41:25;;;;;;;13.40;7.55;;;;;;;15.70;100.00;101879.66;5287196;28;20385;-71
2023/08/11 05:43:55;;;;;;;12.38;6.70;;;;;;;15.83;100.00;101887.25;5277311;28;20016;-71
2023/08/11 05:46:26;;;;;;;14.02;7.55;;;;;;;15.95;100.00;101888.53;5268410;28;20032;-71
2023/08/11 05:48:57;;;;;;;13.15;6.70;;;;;;;16.10;100.00;101891.34;5275079;28;20028;-71
2023/08/11 05:51:27;;;;;;;16.00;6.90;;;;;;;16.25;100.00;101889.56;5279549;28;20388;-71
2023/08/11 05:53:57;;;;;;;12.82;6.45;;;;;;;16.46;100.00;101898.91;5277672;28;20031;-72
2023/08/11 05:56:28;;;;;;;12.00;5.75;;;;;;;16.65;100.00;101886.75;5286175;28;20028;-71
2023/08/11 05:58:58;;;;;;;10.15;6.47;;;;;;;16.93;100.00;101892.50;5286721;28;20024;-72
2023/08/11 06:01:30;;;;;;;11.30;5.75;;;;;;;17.49;100.00;101893.81;5286842;28;20055;-72
2023/08/11 06:04:00;;;;;;;10.82;4.82;;;;;;;18.37;100.00;101895.59;5286213;28;20607;-71
2023/08/11 06:06:31;;;;;;;10.60;4.90;;;;;;;19.10;100.00;101904.47;5286165;28;20027;-72
2023/08/11 06:09:03;;;;;;;7.20;4.13;;;;;;;19.90;100.00;101897.69;5286940;28;20036;-72
2023/08/11 06:11:34;;;;;;;8.25;3.63;;;;;;;20.63;100.00;101886.19;5286205;28;20032;-72
2023/08/11 06:14:04;;;;;;;11.63;3.65;;;;;;;20.96;100.00;101886.22;5286871;28;20050;-72
2023/08/11 06:16:35;;;;;;;7.72;3.38;;;;;;;21.38;100.00;101892.28;5285692;28;20027;-72
2023/08/11 06:19:05;;;;;;;8.77;3.47;;;;;;;21.89;100.00;101886.06;5286612;28;20040;-72
2023/08/11 06:21:37;;;;;;;7.13;2.92;;;;;;;22.18;100.00;101896.47;5286689;28;20027;-73
2023/08/11 06:24:08;;;;;;;6.40;3.05;;;;;;;22.60;100.00;101887.81;5265385;28;20024;-72
2023/08/11 06:26:39;;;;;;;8.68;3.78;;;;;;;22.99;100.00;101894.91;5264606;28;20036;-73
2023/08/11 06:29:09;;;;;;;9.20;2.83;;;;;;;23.16;100.00;101884.25;5264936;28;20381;-73
2023/08/11 06:31:42;;;;;;;7.70;3.15;;;;;;;23.46;100.00;101904.38;5278182;28;20088;-73
2023/08/11 06:34:16;;;;;;;5.70;2.92;;;;;;;23.76;100.00;101901.75;5274718;28;20077;-72
2023/08/11 06:36:47;;;;;;;7.43;3.28;;;;;;;23.60;100.00;101901.50;5285096;28;20508;-73
2023/08/11 06:39:18;;;;;;;7.20;2.65;;;;;;;23.86;100.00;101900.38;5285928;28;20023;-73
2023/08/11 06:41:48;;;;;;;9.00;3.35;;;;;;;24.13;100.00;101896.22;5285623;28;20076;-73
2023/08/11 06:44:19;;;;;;;5.97;2.53;;;;;;;24.36;100.00;101898.28;5285643;28;20042;-73
2023/08/11 06:46:49;;;;;;;7.32;2.92;;;;;;;24.46;100.00;101903.22;5278479;28;20070;-73
2023/08/11 06:49:20;;;;;;;9.13;3.00;;;;;;;24.64;100.00;101894.91;5278403;28;20019;-73
2023/08/11 06:51:50;;;;;;;8.90;2.92;;;;;;;24.49;100.00;101902.72;5285570;28;20150;-73
2023/08/11 06:54:22;;;;;;;5.80;2.70;;;;;;;24.64;100.00;101894.06;5271006;28;20036;-73
2023/08/11 06:56:52;;;;;;;5.20;2.60;;;;;;;25.04;100.00;101900.59;5284948;28;20026;-73
2023/08/11 06:59:23;;;;;;;6.75;2.50;;;;;;;24.92;100.00;101902.50;5285306;28;20027;-73
2023/08/11 07:01:53;;;;;;;3.90;2.50;;;;;;;25.11;100.00;101906.00;5274743;28;20397;-73
2023/08/11 07:04:24;;;;;;;6.20;2.60;;;;;;;25.39;100.00;101909.94;5268600;28;20028;-73
2023/08/11 07:06:55;;;;;;;5.28;2.70;;;;;;;25.62;100.00;101909.94;5265649;28;20106;-73
2023/08/11 07:09:25;;;;;;;4.75;2.70;;;;;;;25.67;100.00;101911.97;5271301;28;20391;-73
2023/08/11 07:11:56;;;;;;;6.25;2.60;;;;;;;25.84;100.00;101912.91;5284853;28;20123;-73
2023/08/11 07:14:26;;;;;;;7.65;2.92;;;;;;;25.92;100.00;101914.44;5285394;28;20034;-73
2023/08/11 07:16:57;;;;;;;4.70;2.50;;;;;;;26.06;100.00;101915.84;5274312;28;20036;-73
2023/08/11 07:19:27;;;;;;;6.47;2.95;;;;;;;26.20;100.00;101910.88;5272416;28;20019;-73
2023/08/11 07:21:58;;;;;;;8.20;2.50;;;;;;;26.48;100.00;101910.09;5283118;28;20027;-73
2023/08/11 07:24:28;;;;;;;8.10;2.80;;;;;;;26.38;100.00;101912.63;5263764;28;20024;-73
2023/08/11 07:26:59;;;;;;;5.00;2.60;;;;;;;26.54;100.00;101900.84;5277499;28;20031;-73
2023/08/11 07:29:29;;;;;;;5.85;2.55;;;;;;;26.57;100.00;101911.38;5274207;28;20031;-74
2023/08/11 07:32:00;;;;;;;4.80;2.22;;;;;;;26.74;100.00;101905.88;5266531;28;20077;-73
2023/08/11 07:34:31;;;;;;;5.85;2.40;;;;;;;27.01;100.00;101901.41;5263495;28;20028;-73
2023/08/11 07:37:01;;;;;;;7.43;2.85;;;;;;;26.84;100.00;101900.53;5268719;28;20019;-74
2023/08/11 07:39:32;;;;;;;6.80;2.78;;;;;;;27.04;100.00;101909.13;5284352;28;20147;-74
2023/08/11 07:42:03;;;;;;;8.23;2.65;;;;;;;27.24;100.00;101908.66;5254248;28;20039;-73
2023/08/11 07:44:34;;;;;;;10.27;2.33;;;;;;;27.25;100.00;101902.06;5262316;28;20054;-74
2023/08/11 07:47:04;;;;;;;5.75;2.42;;;;;;;27.32;100.00;101907.41;5276638;28;20642;-74
2023/08/11 07:49:35;;;;;;;5.32;2.28;;;;;;;27.54;100.00;101901.94;5280103;28;20240;-73
2023/08/11 07:52:05;;;;;;;3.90;2.50;;;;;;;27.47;100.00;101904.88;5275752;28;20031;-73
2023/08/11 07:54:36;;;;;;;5.00;2.60;;;;;;;27.61;100.00;101908.94;5277140;28;20554;-74
2023/08/11 07:57:06;;;;;;;4.63;2.58;;;;;;;27.98;100.00;101907.50;5274558;28;20028;-74
2023/08/11 07:59:37;;;;;;;5.75;2.78;;;;;;;27.75;100.00;101919.59;5284749;28;20027;-74
2023/08/11 08:02:07;;;;;;;6.38;2.60;;;;;;;27.42;100.00;101910.31;5284595;28;20031;-74
2023/08/11 08:04:38;;;;;;;8.40;2.47;;;;;;;27.78;100.00;101902.56;5284832;28;20027;-74
2023/08/11 08:07:10;;;;;;;5.68;2.40;;;;;;;28.12;100.00;101900.50;5282934;28;20076;-73
2023/08/11 08:09:40;;;;;;;5.72;2.78;;;;;;;28.00;100.00;101910.81;5265414;28;20012;-73
2023/08/11 08:12:11;;;;;;;3.42;2.38;;;;;;;28.00;100.00;101908.06;5274356;28;20489;-74
2023/08/11 08:14:43;;;;;;;14.65;2.70;;;;;;;28.13;100.00;101905.75;5288016;28;20027;-74
2023/08/11 08:17:13;;;;;;;13.18;2.60;;;;;;;28.41;100.00;101909.38;5283933;28;20056;-74
2023/08/11 08:19:44;;;;;;;4.65;2.10;;;;;;;28.35;100.00;101911.25;5278807;28;20029;-74
2023/08/11 08:22:14;;;;;;;7.13;2.70;;;;;;;28.24;100.00;101908.63;5274526;28;20034;-74
2023/08/11 08:24:45;;;;;;;6.85;2.67;;;;;;;28.56;100.00;101901.25;5288063;28;20028;-74
2023/08/11 08:27:18;;;;;;;5.72;2.47;;;;;;;28.77;100.00;101895.94;5287791;28;20037;-73
2023/08/11 08:29:49;;;;;;;5.93;2.63;;;;;;;29.00;100.00;101900.28;5287512;28;20020;-73
2023/08/11 08:32:20;;;;;;;9.85;2.72;;;;;;;29.09;100.00;101899.53;5287775;28;20035;-73
2023/08/11 08:34:51;;;;;;;6.88;2.70;;;;;;;29.27;100.00;101905.72;5273981;28;20025;-73
2023/08/11 08:37:24;;;;;;;4.45;2.40;;;;;;;29.35;100.00;101900.53;5287544;28;20030;-73
2023/08/11 08:39:55;;;;;;;5.10;2.28;;;;;;;29.69;100.00;101904.91;5270928;28;20055;-73
2023/08/11 08:42:26;;;;;;;10.38;2.50;;;;;;;29.55;100.00;101899.03;5276870;28;20047;-74
2023/08/11 08:44:58;;;;;;;5.32;2.95;;;;;;;29.06;100.00;101890.94;5274458;28;20381;-74
2023/08/11 08:47:29;;;;;;;3.78;2.17;;;;;;;29.22;100.00;101891.88;5288116;28;20102;-74
2023/08/11 08:50:03;;;;;;;5.65;2.38;;;;;;;28.92;100.00;101887.78;5287967;28;20031;-73
2023/08/11 08:52:35;;;;;;;6.80;2.83;;;;;;;28.59;100.00;101891.63;5287540;28;20415;-72
2023/08/11 08:55:06;;;;;;;6.28;2.30;;;;;;;28.47;100.00;101889.03;5288072;28;20068;-72
2023/08/11 08:57:37;;;;;;;8.73;2.50;;;;;;;29.04;100.00;101880.16;5274255;28;20110;-72
2023/08/11 09:00:08;;;;;;;4.05;2.22;;;;;;;29.62;100.00;101883.03;5287598;28;20019;-71
2023/08/11 09:02:41;;;;;;;5.03;2.30;;;;;;;30.18;100.00;101889.66;5273627;28;20020;-71
2023/08/11 09:05:12;;;;;;;8.25;2.67;;;;;;;30.30;100.00;101883.03;5287286;28;20035;-72
2023/08/11 09:07:43;;;;;;;5.82;2.47;;;;;;;30.22;100.00;101900.16;5286716;28;20023;-74
2023/08/11 09:10:13;;;;;;;5.82;2.35;;;;;;;30.32;100.00;101902.94;5286276;28;20061;-74
2023/08/11 09:12:44;;;;;;;8.45;2.47;;;;;;;30.49;100.00;101895.25;5286125;28;20073;-74
2023/08/11 09:15:15;;;;;;;7.65;2.17;;;;;;;30.96;100.00;101888.63;5282616;27;20040;-74
2023/08/11 09:17:47;;;;;;;15.02;2.70;;;;;;;30.67;100.00;101891.09;5277739;28;20389;-74
2023/08/11 09:20:19;;;;;;;5.50;2.55;;;;;;;30.90;100.00;101893.34;5266756;28;20023;-74
2023/08/11 09:22:50;;;;;;;6.25;2.53;;;;;;;30.88;100.00;101900.28;5275635;28;20015;-74
2023/08/11 09:25:20;;;;;;;6.35;2.30;;;;;;;31.10;100.00;101895.28;5271596;28;20551;-74
2023/08/11 09:27:51;;;;;;;5.55;2.03;;;;;;;31.12;100.00;101892.22;5266609;28;20054;-74
2023/08/11 09:30:21;;;;;;;3.88;2.08;;;;;;;30.97;100.00;101889.47;5266921;28;20341;-74
2023/08/11 09:32:52;;;;;;;3.75;2.03;;;;;;;31.18;100.00;101883.63;5266518;28;20044;-74
2023/08/11 09:35:23;;;;;;;3.92;1.90;;;;;;;31.06;100.00;101891.38;5266526;28;20384;-74
2023/08/11 09:37:55;;;;;;;4.97;2.38;;;;;;;31.49;100.00;101891.06;5266205;28;20127;-73
2023/08/11 09:40:26;;;;;;;5.60;2.10;;;;;;;31.72;100.00;101894.00;5266535;28;20077;-71
2023/08/11 09:42:57;;;;;;;5.72;2.20;;;;;;;31.75;100.00;101891.81;5266394;28;20535;-72
2023/08/11 09:45:30;;;;;;;2.67;1.90;;;;;;;31.83;100.00;101889.31;5278350;28;20032;-72
2023/08/11 09:48:00;;;;;;;6.22;2.53;;;;;;;31.87;100.00;101881.22;5265551;28;20024;-74
2023/08/11 09:50:34;;;;;;;5.60;2.30;;;;;;;31.67;100.00;101876.56;5265897;28;20488;-74
2023/08/11 09:53:05;;;;;;;4.23;2.50;;;;;;;31.53;100.00;101886.59;5282055;28;20077;-74
2023/08/11 09:55:40;;;;;;;5.28;1.95;;;;;;;31.49;100.00;101875.25;5275068;28;20315;-73
2023/08/11 09:58:13;;;;;;;5.35;2.53;;;;;;;31.57;100.00;101879.38;5266414;28;20099;-72
2023/08/11 10:00:47;;;;;;;4.68;2.25;;;;;;;31.85;100.00;101889.03;5265915;28;20028;-74
2023/08/11 10:03:26;;;;;;;4.57;2.22;;;;;;;31.67;100.00;101888.50;5265793;28;20078;-74
2023/08/11 10:06:00;;;;;;;4.20;2.22;;;;;;;31.87;100.00;101887.59;5264791;28;20206;-74
2023/08/11 10:08:31;;;;;;;5.35;2.58;;;;;;;31.64;100.00;101883.53;5277477;28;20362;-74
2023/08/11 10:11:03;;;;;;;4.10;2.35;;;;;;;31.84;100.00;101890.16;5275023;28;20036;-72
2023/08/11 10:13:35;;;;;;;8.40;2.08;;;;;;;32.05;100.00;101888.91;5278831;28;20354;-73
2023/08/11 10:16:06;;;;;;;4.00;2.15;;;;;;;32.07;100.00;101888.63;5278235;28;20077;-72
2023/08/11 10:18:37;;;;;;;3.45;2.00;;;;;;;32.06;100.00;101885.03;5280132;28;20098;-72
2023/08/11 10:21:08;;;;;;;5.40;2.20;;;;;;;32.11;100.00;101875.84;5286411;28;20099;-72
2023/08/11 10:23:39;;;;;;;8.98;2.83;;;;;;;31.46;100.00;101882.19;5286745;28;20038;-73
2023/08/11 10:26:10;;;;;;;8.45;2.40;;;;;;;31.65;100.00;101885.19;5286899;28;20034;-72
2023/08/11 10:28:41;;;;;;;6.13;2.33;;;;;;;31.72;100.00;101880.16;5272584;28;20051;-73
2023/08/11 10:31:12;;;;;;;5.22;2.90;;;;;;;31.96;100.00;101890.63;5286513;28;20110;-72
2023/08/11 10:34:20;;;;;;;5.53;2.35;;;;;;;32.11;100.00;101885.00;5285647;28;20440;-72
2023/08/11 10:36:53;;;;;;;7.68;2.50;;;;;;;32.00;100.00;101882.56;5267638;28;20031;-72
2023/08/11 10:39:25;;;;;;;5.82;2.50;;;;;;;31.56;100.00;101880.50;5264729;28;20032;-73
2023/08/11 10:41:57;;;;;;;5.70;2.60;;;;;;;31.07;100.00;101881.13;5284362;28;20019;-72
2023/08/11 10:44:29;;;;;;;15.43;3.13;;;;;;;31.23;100.00;101876.38;5272555;28;20082;-74
2023/08/11 10:47:02;;;;;;;5.85;2.97;;;;;;;31.31;100.00;101873.91;5271710;28;20023;-74
2023/08/11 10:49:34;;;;;;;5.60;2.78;;;;;;;31.42;100.00;101869.16;5284932;28;20023;-74
2023/08/11 10:52:05;;;;;;;7.70;2.65;;;;;;;31.20;100.00;101878.63;5276143;28;20024;-74
2023/08/11 10:54:35;;;;;;;6.00;2.30;;;;;;;31.56;100.00;101877.72;5267521;28;20568;-74
2023/08/11 10:57:06;;;;;;;12.77;2.55;;;;;;;31.69;100.00;101877.13;5281683;28;20097;-74
2023/08/11 10:59:38;;;;;;;5.18;2.75;;;;;;;31.57;100.00;101882.97;5279982;28;20020;-74
2023/08/11 11:02:08;;;;;;;4.80;2.85;;;;;;;31.20;100.00;101873.06;5282160;28;20080;-74
2023/08/11 11:04:41;;;;;;;6.57;3.00;;;;;;;31.20;100.00;101878.63;5279180;28;20035;-74
2023/08/11 11:07:13;;;;;;;4.47;2.63;;;;;;;31.40;100.00;101874.19;5282966;28;20019;-74
2023/08/11 11:09:43;;;;;;;6.10;2.78;;;;;;;31.50;100.00;101874.16;5291129;28;20046;-74
2023/08/11 11:12:14;;;;;;;7.13;2.60;;;;;;;31.60;100.00;101867.72;5276886;28;20024;-74
2023/08/11 11:14:44;;;;;;;9.65;2.90;;;;;;;31.81;100.00;101877.66;5284465;28;20217;-74
2023/08/11 11:17:16;;;;;;;7.72;2.47;;;;;;;31.85;100.00;101872.38;5283093;28;20435;-74
2023/08/11 11:19:47;;;;;;;4.55;2.70;;;;;;;31.39;100.00;101878.91;5284790;28;20165;-74
2023/08/11 11:22:18;;;;;;;5.43;2.33;;;;;;;31.45;100.00;101879.72;5283527;28;20377;-74
2023/08/11 11:24:48;;;;;;;7.82;2.63;;;;;;;31.69;100.00;101880.72;5283867;28;20016;-74
2023/08/11 11:27:21;;;;;;;6.68;3.15;;;;;;;31.60;100.00;101870.50;5291179;28;20020;-74
2023/08/11 11:30:10;;;;;;;9.05;2.78;;;;;;;31.59;100.00;101868.84;5285516;28;20546;-74
2023/08/11 11:32:42;;;;;;;4.88;3.08;;;;;;;31.70;100.00;101876.00;5287903;28;20032;-74
2023/08/11 11:35:13;;;;;;;4.90;2.60;;;;;;;31.59;100.00;101877.16;5284307;28;20104;-74
2023/08/11 11:37:44;;;;;;;5.47;2.80;;;;;;;31.55;100.00;101873.31;5283813;28;20047;-74